This is the latest recevied weather packets stored in our database for station/object SP6PWT-13. If no packets are shown the sender has not sent any weather packets the latest 1 day(s).
| Time | Temp. | Humidity | Pressure | Rain* | Wind** | Luminosity | Snow |
|---|---|---|---|---|---|---|---|
| 1778000199 | 25° C | 37% | 988.6 hPa | 0 mm | 2.24 m/s, 23° | 35 W/m² | - |
| 1777999899 | 25° C | 37% | 988.6 hPa | 0 mm | 3.13 m/s, 43° | 42 W/m² | - |
| 1777999598 | 25° C | 37% | 988.5 hPa | 0 mm | 4.92 m/s, 4° | 54 W/m² | - |
| 1777999298 | 25° C | 37% | 988.5 hPa | 0 mm | 3.13 m/s, 358° | 65 W/m² | - |
| 1777998998 | 25° C | 36% | 988.5 hPa | 0 mm | 2.24 m/s, 21° | 88 W/m² | - |
| 1777998698 | 25.56° C | 36% | 988.7 hPa | 0 mm | 1.79 m/s, 8° | 99 W/m² | - |
| 1777998397 | 25.56° C | 35% | 988.6 hPa | 0 mm | 2.24 m/s, 349° | 109 W/m² | - |
| 1777998097 | 25.56° C | 36% | 988.7 hPa | 0 mm | 1.34 m/s, 34° | 105 W/m² | - |
| 1777997797 | 26.11° C | 35% | 988.6 hPa | 0 mm | 2.68 m/s, 55° | 116 W/m² | - |
| 1777997496 | 26.11° C | 33% | 988.7 hPa | 0 mm | 1.34 m/s, 5° | 121 W/m² | - |
| 1777997195 | 26.67° C | 32% | 988.9 hPa | 0 mm | 1.79 m/s, 8° | 132 W/m² | - |
| 1777996895 | 26.11° C | 33% | 988.7 hPa | 0 mm | 0 m/s | 132 W/m² | - |
| 1777996595 | 26.11° C | 33% | 988.6 hPa | 0 mm | 1.34 m/s, 56° | 140 W/m² | - |
| 1777996294 | 26.11° C | 33% | 988.8 hPa | 0 mm | 1.34 m/s, 92° | 158 W/m² | - |
| 1777995994 | 26.67° C | 32% | 988.8 hPa | 0 mm | 1.34 m/s, 339° | 176 W/m² | - |
| 1777995693 | 27.22° C | 32% | 988.9 hPa | 0 mm | 1.34 m/s, 99° | 168 W/m² | - |
| 1777995393 | 27.22° C | 31% | 988.8 hPa | 0 mm | 0.89 m/s, 265° | 145 W/m² | - |
| 1777995092 | 26.67° C | 32% | 988.9 hPa | 0 mm | 0 m/s | 197 W/m² | - |
| 1777994791 | 26.11° C | 32% | 988.9 hPa | 0 mm | 3.13 m/s, 273° | 221 W/m² | - |
| 1777994491 | 26.11° C | 32% | 988.9 hPa | 0 mm | 1.34 m/s, 263° | 235 W/m² | - |
| 1777994180 | 26.11° C | 32% | 989 hPa | 0 mm | 3.13 m/s, 4° | 249 W/m² | - |
| 1777993879 | 26.11° C | 33% | 988.9 hPa | 0 mm | 1.34 m/s, 29° | 282 W/m² | - |
| 1777993569 | 26.11° C | 33% | 989 hPa | 0 mm | 1.79 m/s, 4° | 320 W/m² | - |
| 1777993269 | 26.11° C | 33% | 988.8 hPa | 0 mm | 2.68 m/s, 32° | 331 W/m² | - |
| 1777992968 | 26.67° C | 32% | 989.1 hPa | 0 mm | 1.34 m/s, 353° | 336 W/m² | - |
* Rain latest hour (hover to see other rain measurements)
** Current wind speed in m/s (hover to see current wind gust speed)